Time,TemperatureF,DewpointF,PressureIn,WindDirection,WindDirectionDegrees,WindSpeedMPH,WindSpeedGustMPH,Humidity,HourlyPrecipIn,Conditions,Clouds,dailyrainin,SoftwareType,DateUTC
2013-07-13 00:01:00,79.0,62.0,29.96,South,178,5.0,5.0,57,0.00,,,0.00,,2013-07-13 05:01:00,
2013-07-13 00:11:00,79.0,62.0,29.96,ESE,119,0.0,0.0,57,0.00,,,0.00,,2013-07-13 05:11:00,
2013-07-13 00:22:00,79.0,62.0,29.96,South,189,13.0,15.0,57,0.00,,,0.00,,2013-07-13 05:22:00,
2013-07-13 00:32:00,79.0,62.0,29.96,SSW,198,4.0,16.0,56,0.00,,,0.00,,2013-07-13 05:32:00,
2013-07-13 00:42:00,79.0,62.0,29.96,North,10,0.0,0.0,57,0.00,,,0.00,,2013-07-13 05:42:00,
2013-07-13 00:52:00,79.0,62.0,29.96,North,10,0.0,0.0,57,0.00,,,0.00,,2013-07-13 05:52:00,
2013-07-13 01:01:00,79.0,62.0,29.96,North,10,0.0,0.0,57,0.00,,,0.00,,2013-07-13 06:01:00,
2013-07-13 01:11:00,78.0,62.0,29.97,North,10,0.0,0.0,57,0.00,,,0.00,,2013-07-13 06:11:00,
2013-07-13 01:22:00,78.0,62.0,29.98,North,10,0.0,0.0,57,0.00,,,0.00,,2013-07-13 06:22:00,
2013-07-13 01:32:00,78.0,61.0,29.98,North,10,0.0,0.0,56,0.00,,,0.00,,2013-07-13 06:32:00,
2013-07-13 01:43:00,78.0,62.0,29.98,North,10,0.0,0.0,57,0.00,,,0.00,,2013-07-13 06:43:00,
2013-07-13 01:52:00,78.0,62.0,29.98,North,10,0.0,0.0,57,0.00,,,0.00,,2013-07-13 06:52:00,
2013-07-13 02:02:00,78.0,62.0,29.98,North,10,0.0,0.0,57,0.00,,,0.00,,2013-07-13 07:02:00,
2013-07-13 02:11:00,77.0,61.0,29.98,North,10,0.0,0.0,57,0.00,,,0.00,,2013-07-13 07:11:00,
2013-07-13 02:22:00,77.0,61.0,29.98,South,173,10.0,19.0,57,0.00,,,0.00,,2013-07-13 07:22:00,
2013-07-13 02:33:00,77.0,61.0,29.98,South,184,10.0,15.0,58,0.00,,,0.00,,2013-07-13 07:33:00,
2013-07-13 02:44:00,77.0,61.0,29.98,SSW,192,0.0,21.0,58,0.00,,,0.00,,2013-07-13 07:44:00,
2013-07-13 02:53:00,77.0,61.0,29.98,NNE,16,2.0,19.0,58,0.00,,,0.00,,2013-07-13 07:53:00,
2013-07-13 03:01:00,77.0,61.0,29.98,North,4,0.0,0.0,58,0.00,,,0.00,,2013-07-13 08:01:00,
2013-07-13 03:11:00,77.0,61.0,29.98,NNE,17,0.0,0.0,58,0.00,,,0.00,,2013-07-13 08:11:00,
2013-07-13 03:22:00,76.0,60.0,29.97,South,172,8.0,15.0,58,0.00,,,0.00,,2013-07-13 08:22:00,
2013-07-13 03:33:00,76.0,61.0,29.97,South,174,9.0,24.0,59,0.00,,,0.00,,2013-07-13 08:33:00,
2013-07-13 03:43:00,76.0,61.0,29.97,South,182,13.0,17.0,59,0.00,,,0.00,,2013-07-13 08:43:00,
2013-07-13 03:52:00,76.0,61.0,29.97,South,187,13.0,17.0,60,0.00,,,0.00,,2013-07-13 08:52:00,
2013-07-13 04:02:00,76.0,61.0,29.97,South,180,10.0,16.0,60,0.00,,,0.00,,2013-07-13 09:02:00,
2013-07-13 04:11:00,76.0,62.0,29.96,South,184,12.0,19.0,61,0.00,,,0.00,,2013-07-13 09:11:00,
2013-07-13 04:22:00,75.0,61.0,29.96,SSW,192,13.0,17.0,61,0.00,,,0.00,,2013-07-13 09:22:00,
2013-07-13 04:33:00,75.0,61.0,29.96,South,189,11.0,18.0,61,0.00,,,0.00,,2013-07-13 09:33:00,
2013-07-13 04:43:00,75.0,61.0,29.96,South,178,10.0,15.0,62,0.00,,,0.00,,2013-07-13 09:43:00,
2013-07-13 04:53:00,75.0,61.0,29.96,SSE,166,10.0,20.0,62,0.00,,,0.00,,2013-07-13 09:53:00,
2013-07-13 05:01:00,75.0,61.0,29.97,SSW,199,10.0,13.0,62,0.00,,,0.00,,2013-07-13 10:01:00,
2013-07-13 05:11:00,75.0,62.0,29.97,South,172,9.0,18.0,63,0.00,,,0.00,,2013-07-13 10:11:00,
2013-07-13 05:22:00,75.0,62.0,29.97,South,177,13.0,19.0,64,0.00,,,0.00,,2013-07-13 10:22:00,
2013-07-13 05:32:00,74.0,61.0,29.97,South,174,12.0,15.0,64,0.00,,,0.00,,2013-07-13 10:32:00,
2013-07-13 05:43:00,74.0,61.0,29.98,South,177,10.0,15.0,65,0.00,,,0.00,,2013-07-13 10:43:00,
2013-07-13 05:52:00,74.0,61.0,29.97,SSW,193,10.0,12.0,65,0.00,,,0.00,,2013-07-13 10:52:00,
2013-07-13 06:02:00,74.0,61.0,29.98,South,181,11.0,17.0,65,0.00,,,0.00,,2013-07-13 11:02:00,
2013-07-13 06:11:00,74.0,62.0,29.98,South,184,9.0,14.0,66,0.00,,,0.00,,2013-07-13 11:11:00,
2013-07-13 06:22:00,74.0,62.0,29.98,SSE,160,10.0,15.0,67,0.00,,,0.00,,2013-07-13 11:22:00,
2013-07-13 06:32:00,73.0,62.0,29.98,SSW,192,12.0,17.0,68,0.00,,,0.00,,2013-07-13 11:32:00,
2013-07-13 06:42:00,73.0,62.0,29.98,South,189,11.0,12.0,69,0.00,,,0.00,,2013-07-13 11:42:00,
2013-07-13 06:52:00,73.0,62.0,29.98,South,189,10.0,15.0,69,0.00,,,0.00,,2013-07-13 11:52:00,
2013-07-13 07:02:00,73.0,62.0,29.98,South,188,9.0,11.0,68,0.00,,,0.00,,2013-07-13 12:02:00,
2013-07-13 07:12:00,73.0,61.0,29.98,South,175,11.0,16.0,67,0.00,,,0.00,,2013-07-13 12:12:00,
2013-07-13 07:22:00,73.0,61.0,29.97,South,174,9.0,12.0,67,0.00,,,0.00,,2013-07-13 12:22:00,
2013-07-13 07:32:00,73.0,61.0,29.98,South,178,11.0,18.0,67,0.00,,,0.00,,2013-07-13 12:32:00,
2013-07-13 07:43:00,73.0,61.0,29.98,SSW,192,9.0,15.0,66,0.00,,,0.00,,2013-07-13 12:43:00,
2013-07-13 07:52:00,74.0,62.0,29.98,South,177,8.0,11.0,66,0.00,,,0.00,,2013-07-13 12:52:00,
2013-07-13 08:01:00,74.0,61.0,29.98,SSE,164,8.0,10.0,65,0.00,,,0.00,,2013-07-13 13:01:00,
2013-07-13 08:11:00,75.0,62.0,29.98,South,177,10.0,14.0,63,0.00,,,0.00,,2013-07-13 13:11:00,
2013-07-13 08:22:00,75.0,62.0,29.98,South,169,9.0,14.0,63,0.00,,,0.00,,2013-07-13 13:22:00,
2013-07-13 08:32:00,76.0,62.0,29.98,South,182,1.0,13.0,63,0.00,,,0.00,,2013-07-13 13:32:00,
2013-07-13 08:43:00,76.0,62.0,29.98,South,182,1.0,13.0,63,0.00,,,0.00,,2013-07-13 13:43:00,
2013-07-13 08:53:00,76.0,62.0,29.98,North,4,1.0,0.0,62,0.00,,,0.00,,2013-07-13 13:53:00,
2013-07-13 09:02:00,76.0,62.0,29.98,South,179,10.0,17.0,63,0.00,,,0.00,,2013-07-13 14:02:00,
2013-07-13 09:11:00,75.0,62.0,29.98,South,191,15.0,18.0,64,0.00,,,0.00,,2013-07-13 14:11:00,
2013-07-13 09:22:00,75.0,62.0,29.99,SSW,201,10.0,11.0,65,0.00,,,0.00,,2013-07-13 14:22:00,
2013-07-13 09:32:00,75.0,63.0,29.98,South,179,9.0,10.0,66,0.00,,,0.00,,2013-07-13 14:32:00,
2013-07-13 09:43:00,75.0,63.0,29.98,South,187,12.0,16.0,66,0.00,,,0.00,,2013-07-13 14:43:00,
2013-07-13 09:53:00,76.0,64.0,29.98,South,179,9.0,16.0,66,0.00,,,0.00,,2013-07-13 14:53:00,
2013-07-13 10:02:00,77.0,64.0,29.98,South,180,9.0,16.0,64,0.00,,,0.00,,2013-07-13 15:02:00,
2013-07-13 10:12:00,77.0,64.0,29.98,South,180,9.0,16.0,64,0.00,,,0.00,,2013-07-13 15:12:00,
2013-07-13 10:22:00,78.0,65.0,29.98,South,179,5.0,8.0,64,0.00,,,0.00,,2013-07-13 15:22:00,
2013-07-13 10:33:00,78.0,65.0,29.97,South,171,10.0,18.0,65,0.00,,,0.00,,2013-07-13 15:33:00,
2013-07-13 10:43:00,78.0,65.0,29.97,South,179,8.0,14.0,65,0.00,,,0.00,,2013-07-13 15:43:00,
2013-07-13 10:53:00,79.0,65.0,29.98,SSW,203,10.0,12.0,63,0.00,,,0.00,,2013-07-13 15:53:00,
2013-07-13 11:02:00,79.0,65.0,29.98,SSW,203,10.0,12.0,63,0.00,,,0.00,,2013-07-13 16:02:00,
2013-07-13 11:11:00,79.0,65.0,29.96,South,186,2.0,14.0,63,0.00,,,0.00,,2013-07-13 16:11:00,
2013-07-13 11:22:00,79.0,66.0,29.96,North,7,1.0,15.0,64,0.00,,,0.00,,2013-07-13 16:22:00,
2013-07-13 11:32:00,79.0,66.0,29.96,SSW,192,3.0,8.0,64,0.00,,,0.00,,2013-07-13 16:32:00,
2013-07-13 11:43:00,79.0,65.0,29.96,SE,137,1.0,0.0,63,0.00,,,0.00,,2013-07-13 16:43:00,
2013-07-13 11:53:00,78.0,65.0,29.97,South,188,3.0,10.0,65,0.00,,,0.00,,2013-07-13 16:53:00,
2013-07-13 12:01:00,79.0,66.0,29.97,SSE,161,5.0,14.0,65,0.00,,,0.00,,2013-07-13 17:01:00,
2013-07-13 12:12:00,80.0,66.0,29.97,SSE,163,11.0,12.0,63,0.00,,,0.00,,2013-07-13 17:12:00,
2013-07-13 12:22:00,81.0,67.0,29.97,South,176,13.0,17.0,62,0.00,,,0.00,,2013-07-13 17:22:00,
2013-07-13 12:33:00,82.0,68.0,29.97,SSE,158,11.0,14.0,62,0.00,,,0.00,,2013-07-13 17:33:00,
2013-07-13 12:43:00,83.0,68.0,29.96,South,178,10.0,14.0,61,0.00,,,0.00,,2013-07-13 17:43:00,
2013-07-13 12:52:00,84.0,69.0,29.96,South,181,12.0,20.0,60,0.00,,,0.00,,2013-07-13 17:52:00,
2013-07-13 13:01:00,84.0,68.0,29.96,South,173,12.0,16.0,59,0.00,,,0.00,,2013-07-13 18:01:00,
2013-07-13 13:11:00,85.0,69.0,29.96,SE,139,11.0,15.0,58,0.00,,,0.00,,2013-07-13 18:11:00,
2013-07-13 13:21:00,85.0,69.0,29.95,South,176,14.0,20.0,58,0.00,,,0.00,,2013-07-13 18:21:00,
2013-07-13 13:32:00,86.0,69.0,29.96,SSE,154,9.0,18.0,57,0.00,,,0.00,,2013-07-13 18:32:00,
2013-07-13 13:43:00,86.0,69.0,29.96,South,173,12.0,15.0,57,0.00,,,0.00,,2013-07-13 18:43:00,
2013-07-13 13:53:00,85.0,68.0,29.96,SSE,159,12.0,14.0,57,0.00,,,0.00,,2013-07-13 18:53:00,
2013-07-13 14:02:00,86.0,69.0,29.96,South,174,11.0,16.0,57,0.00,,,0.00,,2013-07-13 19:02:00,
2013-07-13 14:11:00,86.0,68.0,29.95,SSE,160,10.0,11.0,56,0.00,,,0.00,,2013-07-13 19:11:00,
2013-07-13 14:22:00,86.0,68.0,29.95,SE,143,13.0,17.0,56,0.00,,,0.00,,2013-07-13 19:22:00,
2013-07-13 14:32:00,86.0,68.0,29.95,SSE,168,14.0,17.0,55,0.00,,,0.00,,2013-07-13 19:32:00,
2013-07-13 14:44:00,87.0,69.0,29.95,South,172,14.0,19.0,55,0.00,,,0.00,,2013-07-13 19:44:00,
2013-07-13 14:52:00,87.0,68.0,29.95,South,176,13.0,17.0,54,0.00,,,0.00,,2013-07-13 19:52:00,
2013-07-13 15:01:00,87.0,68.0,29.95,SSE,155,10.0,15.0,54,0.00,,,0.00,,2013-07-13 20:01:00,
2013-07-13 15:11:00,88.0,69.0,29.95,SSE,155,10.0,18.0,54,0.00,,,0.00,,2013-07-13 20:11:00,
2013-07-13 15:22:00,88.0,69.0,29.94,South,183,11.0,14.0,54,0.00,,,0.00,,2013-07-13 20:22:00,
2013-07-13 15:33:00,88.0,69.0,29.94,SSE,160,13.0,19.0,54,0.00,,,0.00,,2013-07-13 20:33:00,
2013-07-13 15:42:00,88.0,68.0,29.94,SSE,166,14.0,18.0,52,0.00,,,0.00,,2013-07-13 20:42:00,
2013-07-13 15:52:00,89.0,69.0,29.93,SSE,161,15.0,22.0,52,0.00,,,0.00,,2013-07-13 20:52:00,
2013-07-13 16:02:00,89.0,70.0,29.93,South,184,13.0,17.0,53,0.00,,,0.00,,2013-07-13 21:02:00,
2013-07-13 16:12:00,89.0,70.0,29.94,South,180,10.0,14.0,53,0.00,,,0.00,,2013-07-13 21:12:00,
2013-07-13 16:22:00,89.0,67.0,29.94,South,178,17.0,29.0,49,0.00,,,0.00,,2013-07-13 21:22:00,
2013-07-13 16:32:00,88.0,68.0,29.94,South,184,10.0,21.0,52,0.00,,,0.00,,2013-07-13 21:32:00,
2013-07-13 16:42:00,88.0,68.0,29.94,SSW,195,15.0,18.0,52,0.00,,,0.00,,2013-07-13 21:42:00,
2013-07-13 16:53:00,88.0,69.0,29.94,SSE,164,17.0,22.0,53,0.00,,,0.00,,2013-07-13 21:53:00,
2013-07-13 17:01:00,87.0,69.0,29.94,South,182,15.0,18.0,55,0.00,,,0.00,,2013-07-13 22:01:00,
2013-07-13 17:12:00,87.0,69.0,29.94,SSE,162,18.0,21.0,55,0.00,,,0.00,,2013-07-13 22:12:00,
2013-07-13 17:22:00,87.0,69.0,29.94,SSE,165,13.0,17.0,56,0.00,,,0.00,,2013-07-13 22:22:00,
2013-07-13 17:32:00,87.0,70.0,29.94,South,183,13.0,22.0,57,0.00,,,0.00,,2013-07-13 22:32:00,
2013-07-13 17:43:00,87.0,69.0,29.94,South,173,14.0,18.0,56,0.00,,,0.00,,2013-07-13 22:43:00,
2013-07-13 17:53:00,87.0,70.0,29.95,SSE,163,6.0,11.0,58,0.00,,,0.00,,2013-07-13 22:53:00,
2013-07-13 18:01:00,86.0,70.0,29.94,SSE,150,12.0,18.0,59,0.00,,,0.00,,2013-07-13 23:01:00,
2013-07-13 18:11:00,86.0,70.0,29.94,SSE,152,14.0,23.0,59,0.00,,,0.00,,2013-07-13 23:11:00,
2013-07-13 18:22:00,85.0,70.0,29.94,SSE,159,13.0,19.0,60,0.00,,,0.00,,2013-07-13 23:22:00,
2013-07-13 18:32:00,85.0,70.0,29.94,SSE,166,14.0,22.0,60,0.00,,,0.00,,2013-07-13 23:32:00,
2013-07-13 18:42:00,85.0,70.0,29.94,SSE,152,13.0,19.0,61,0.00,,,0.00,,2013-07-13 23:42:00,
2013-07-13 18:53:00,85.0,70.0,29.94,SSE,158,15.0,21.0,61,0.00,,,0.00,,2013-07-13 23:53:00,
2013-07-13 19:01:00,85.0,70.0,29.94,SSE,164,11.0,17.0,62,0.00,,,0.00,,2013-07-14 00:01:00,
2013-07-13 19:11:00,85.0,71.0,29.94,South,173,10.0,15.0,63,0.00,,,0.00,,2013-07-14 00:11:00,
2013-07-13 19:21:00,85.0,70.0,29.94,South,172,11.0,14.0,61,0.00,,,0.00,,2013-07-14 00:21:00,
2013-07-13 19:33:00,85.0,70.0,29.93,SSE,162,10.0,15.0,62,0.00,,,0.00,,2013-07-14 00:33:00,
2013-07-13 19:42:00,85.0,71.0,29.93,SSE,158,10.0,14.0,63,0.00,,,0.00,,2013-07-14 00:42:00,
2013-07-13 19:53:00,84.0,69.0,29.93,South,186,15.0,20.0,61,0.00,,,0.00,,2013-07-14 00:53:00,
2013-07-13 20:02:00,84.0,70.0,29.93,SSE,151,9.0,17.0,64,0.00,,,0.00,,2013-07-14 01:02:00,
2013-07-13 20:11:00,83.0,69.0,29.93,SSE,155,9.0,13.0,63,0.00,,,0.00,,2013-07-14 01:11:00,
2013-07-13 20:22:00,83.0,70.0,29.94,SSE,157,12.0,18.0,64,0.00,,,0.00,,2013-07-14 01:22:00,
2013-07-13 20:32:00,83.0,70.0,29.95,SSE,154,9.0,16.0,65,0.00,,,0.00,,2013-07-14 01:32:00,
2013-07-13 20:43:00,82.0,70.0,29.95,SSE,150,12.0,17.0,68,0.00,,,0.00,,2013-07-14 01:43:00,
2013-07-13 20:52:00,82.0,70.0,29.95,SSE,150,11.0,20.0,68,0.00,,,0.00,,2013-07-14 01:52:00,
2013-07-13 21:01:00,82.0,70.0,29.95,SSE,153,15.0,23.0,68,0.00,,,0.00,,2013-07-14 02:01:00,
2013-07-13 21:11:00,82.0,70.0,29.95,SSE,156,11.0,22.0,68,0.00,,,0.00,,2013-07-14 02:11:00,
2013-07-13 21:22:00,81.0,70.0,29.95,SSE,161,13.0,21.0,70,0.00,,,0.00,,2013-07-14 02:22:00,
2013-07-13 21:32:00,81.0,70.0,29.96,SSE,150,9.0,16.0,70,0.00,,,0.00,,2013-07-14 02:32:00,
2013-07-13 21:43:00,80.0,69.0,29.96,SE,133,12.0,23.0,69,0.00,,,0.00,,2013-07-14 02:43:00,
2013-07-13 21:53:00,80.0,68.0,29.96,SSE,159,12.0,21.0,68,0.00,,,0.00,,2013-07-14 02:53:00,
2013-07-13 22:01:00,80.0,68.0,29.96,SSE,158,16.0,24.0,68,0.00,,,0.00,,2013-07-14 03:01:00,
2013-07-13 22:11:00,80.0,69.0,29.97,North,4,0.0,0.0,69,0.00,,,0.00,,2013-07-14 03:11:00,
2013-07-13 22:22:00,80.0,68.0,29.98,South,191,3.0,0.0,68,0.00,,,0.00,,2013-07-14 03:22:00,
2013-07-13 22:32:00,79.0,67.0,29.98,SSE,147,15.0,29.0,67,0.00,,,0.00,,2013-07-14 03:32:00,
2013-07-13 22:43:00,79.0,67.0,29.97,SSE,156,17.0,24.0,67,0.00,,,0.00,,2013-07-14 03:43:00,
2013-07-13 22:53:00,79.0,67.0,29.98,SSE,166,10.0,19.0,67,0.00,,,0.00,,2013-07-14 03:53:00,
2013-07-13 23:02:00,79.0,67.0,29.98,SSE,150,14.0,24.0,66,0.00,,,0.00,,2013-07-14 04:02:00,
2013-07-13 23:11:00,79.0,67.0,29.98,SSE,167,10.0,22.0,66,0.00,,,0.00,,2013-07-14 04:11:00,
2013-07-13 23:22:00,79.0,67.0,29.98,SSE,165,11.0,18.0,66,0.00,,,0.00,,2013-07-14 04:22:00,
2013-07-13 23:32:00,79.0,67.0,29.98,ESE,105,7.0,14.0,66,0.00,,,0.00,,2013-07-14 04:32:00,
2013-07-13 23:42:00,78.0,66.0,29.99,SE,137,0.0,0.0,67,0.00,,,0.00,,2013-07-14 04:42:00,
2013-07-13 23:53:00,78.0,66.0,29.99,SSE,166,13.0,17.0,67,0.00,,,0.00,,2013-07-14 04:53:00,